createdAt,value
2023-05-10T00:02:27.527Z,9.39
2023-05-10T00:06:04.157Z,9.36
2023-05-10T00:09:42.280Z,9.35
2023-05-10T00:13:19.368Z,9.33
2023-05-10T00:16:57.320Z,9.33
2023-05-10T00:20:34.935Z,9.30
2023-05-10T00:24:12.849Z,9.28
2023-05-10T00:27:50.925Z,9.28
2023-05-10T00:31:28.150Z,9.25
2023-05-10T00:35:06.376Z,9.23
2023-05-10T00:38:43.516Z,9.21
2023-05-10T00:42:21.005Z,9.19
2023-05-10T00:45:58.926Z,9.16
2023-05-10T00:49:37.510Z,9.13
2023-05-10T00:53:14.274Z,9.11
2023-05-10T00:56:52.883Z,9.09
2023-05-10T01:00:30.952Z,9.05
2023-05-10T01:04:07.561Z,9.04
2023-05-10T01:07:44.578Z,9.03
2023-05-10T01:11:23.303Z,9.03
2023-05-10T01:15:02.111Z,9.00
2023-05-10T01:18:40.564Z,8.99
2023-05-10T01:22:44.403Z,8.97
2023-05-10T01:26:19.940Z,8.97
2023-05-10T01:30:15.439Z,8.95
2023-05-10T01:33:53.857Z,8.94
2023-05-10T01:37:22.846Z,8.92
2023-05-10T01:41:17.536Z,8.92
2023-05-10T01:48:48.861Z,8.90
2023-05-10T01:52:23.799Z,8.89
2023-05-10T01:55:57.039Z,8.88
2023-05-10T02:03:13.215Z,8.88
2023-05-10T02:06:51.629Z,8.87
2023-05-10T02:10:28.327Z,8.86
2023-05-10T02:14:06.970Z,8.85
2023-05-10T02:17:43.867Z,8.84
2023-05-10T02:21:22.690Z,8.85
2023-05-10T02:25:00.778Z,8.85
2023-05-10T02:28:36.807Z,8.85
2023-05-10T02:32:13.975Z,8.85
2023-05-10T02:35:52.400Z,8.83
2023-05-10T02:39:29.972Z,8.81
2023-05-10T02:43:08.151Z,8.79
2023-05-10T02:46:44.721Z,8.79
2023-05-10T02:50:22.107Z,8.77
2023-05-10T02:54:01.222Z,8.77
2023-05-10T02:57:43.526Z,8.74
2023-05-10T03:01:14.308Z,8.72
2023-05-10T03:04:54.211Z,8.69
2023-05-10T03:08:33.089Z,8.68
2023-05-10T03:12:24.721Z,8.66
2023-05-10T03:16:03.980Z,8.65
2023-05-10T03:19:31.754Z,8.66
2023-05-10T03:23:14.861Z,8.68
2023-05-10T03:26:39.766Z,8.71
2023-05-10T03:30:16.079Z,8.74
2023-05-10T03:33:54.173Z,8.77
2023-05-10T03:37:31.230Z,8.83
2023-05-10T03:41:08.530Z,8.89
2023-05-10T03:44:46.280Z,8.93
2023-05-10T03:48:23.928Z,8.96
2023-05-10T03:52:01.491Z,9.00
2023-05-10T03:55:39.401Z,9.05
2023-05-10T03:59:16.959Z,9.10
2023-05-10T04:02:54.353Z,9.15
2023-05-10T04:06:33.124Z,9.20
2023-05-10T04:10:09.900Z,9.24
2023-05-10T04:13:47.667Z,9.28
2023-05-10T04:17:25.511Z,9.34
2023-05-10T04:21:03.225Z,9.37
2023-05-10T04:24:40.672Z,9.40
2023-05-10T04:28:18.547Z,9.42
2023-05-10T04:31:56.543Z,9.45
2023-05-10T04:35:34.040Z,9.51
2023-05-10T04:39:30.211Z,9.58
2023-05-10T04:42:49.441Z,9.64
2023-05-10T04:46:26.652Z,9.72
2023-05-10T04:50:08.645Z,9.88
2023-05-10T04:53:44.650Z,10.08
2023-05-10T04:57:19.729Z,10.30
2023-05-10T05:00:57.431Z,10.51
2023-05-10T05:04:35.602Z,10.72
2023-05-10T05:08:13.181Z,10.89
2023-05-10T05:11:50.253Z,10.98
2023-05-10T05:15:28.623Z,11.08
2023-05-10T05:19:06.336Z,11.19
2023-05-10T05:22:43.489Z,11.25
2023-05-10T05:26:21.401Z,11.29
2023-05-10T05:29:59.033Z,11.33
2023-05-10T05:33:36.518Z,11.37
2023-05-10T05:37:15.761Z,11.38
2023-05-10T05:40:51.860Z,11.44
2023-05-10T05:44:30.125Z,11.50
2023-05-10T05:48:07.107Z,11.51
2023-05-10T05:51:45.741Z,11.52
2023-05-10T05:55:22.571Z,11.55
2023-05-10T05:59:00.240Z,11.58
2023-05-10T06:02:38.381Z,11.65
2023-05-10T06:06:15.521Z,11.68
2023-05-10T06:09:53.224Z,11.78
2023-05-10T06:13:33.790Z,11.85
2023-05-10T06:17:08.510Z,11.87
2023-05-10T06:20:46.328Z,11.89
2023-05-10T06:24:23.673Z,11.95
2023-05-10T06:28:02.442Z,12.04
2023-05-10T06:31:39.578Z,12.11
2023-05-10T06:35:17.212Z,12.14
2023-05-10T06:38:54.497Z,12.19
2023-05-10T06:46:10.424Z,12.32
2023-05-10T06:49:48.083Z,12.45
2023-05-10T06:53:25.564Z,12.56
2023-05-10T06:57:08.851Z,12.61
2023-05-10T07:00:41.773Z,12.69
2023-05-10T07:04:18.862Z,12.78
2023-05-10T07:11:33.880Z,13.08
2023-05-10T07:15:11.563Z,13.23
2023-05-10T07:18:49.356Z,13.42
2023-05-10T07:22:26.640Z,13.49
2023-05-10T07:26:04.470Z,13.59
2023-05-10T07:29:42.041Z,13.82
2023-05-10T07:33:19.609Z,14.12
2023-05-10T07:37:00.147Z,14.38
2023-05-10T07:40:35.385Z,14.65
2023-05-10T07:44:12.713Z,14.79
2023-05-10T07:47:50.821Z,14.95
2023-05-10T07:51:29.108Z,14.94
2023-05-10T07:55:06.736Z,14.88
2023-05-10T07:58:43.655Z,14.97
2023-05-10T08:02:21.159Z,15.13
2023-05-10T08:05:59.118Z,15.22
2023-05-10T08:09:37.041Z,15.41
2023-05-10T08:13:14.329Z,15.51
2023-05-10T08:16:51.997Z,15.59
2023-05-10T08:20:29.856Z,15.74
2023-05-10T08:24:07.565Z,15.82
2023-05-10T08:27:46.108Z,15.95
2023-05-10T08:31:22.719Z,16.06
2023-05-10T08:42:20.627Z,16.67
2023-05-10T08:45:57.151Z,16.82
2023-05-10T08:49:33.446Z,16.97
2023-05-10T08:53:14.773Z,17.09
2023-05-10T09:00:24.906Z,17.49
2023-05-10T09:04:02.316Z,17.76
2023-05-10T09:07:39.251Z,17.80
2023-05-10T09:11:18.762Z,17.81
2023-05-10T09:14:56.596Z,17.74
2023-05-10T09:18:32.272Z,17.65
2023-05-10T09:25:48.000Z,17.93
2023-05-10T09:29:25.806Z,17.83
2023-05-10T09:33:04.163Z,18.01
2023-05-10T09:36:58.195Z,17.88
2023-05-10T09:40:21.153Z,17.77
2023-05-10T09:43:59.365Z,17.86
2023-05-10T09:47:35.258Z,17.76
2023-05-10T09:51:11.824Z,17.85
2023-05-10T09:54:55.921Z,17.75
2023-05-10T09:58:27.236Z,17.84
2023-05-10T10:02:04.607Z,17.96
2023-05-10T10:05:44.581Z,17.96
2023-05-10T10:09:19.927Z,17.93
2023-05-10T10:12:57.374Z,18.03
2023-05-10T10:16:35.315Z,17.92
2023-05-10T10:20:13.923Z,17.98
2023-05-10T10:23:51.147Z,17.96
2023-05-10T10:27:58.809Z,17.85
2023-05-10T10:31:24.690Z,17.69
2023-05-10T10:34:43.863Z,17.54
2023-05-10T10:38:22.276Z,17.46
2023-05-10T10:42:01.014Z,17.49
2023-05-10T10:45:42.192Z,17.56
2023-05-10T10:49:16.564Z,17.63
2023-05-10T10:52:53.117Z,17.74
2023-05-10T10:56:30.007Z,17.83
2023-05-10T11:00:29.842Z,17.88
2023-05-10T11:04:00.368Z,17.95
2023-05-10T11:07:24.133Z,18.00
2023-05-10T11:11:00.689Z,18.04
2023-05-10T11:14:38.320Z,18.08
2023-05-10T11:18:26.040Z,17.93
2023-05-10T11:25:45.596Z,18.05
2023-05-10T11:29:19.538Z,18.16
2023-05-10T11:32:57.221Z,18.26
2023-05-10T11:36:37.246Z,18.25
2023-05-10T11:40:13.559Z,18.22
2023-05-10T11:43:55.350Z,18.23
2023-05-10T11:47:27.525Z,18.24
2023-05-10T11:54:53.737Z,18.35
2023-05-10T11:58:22.389Z,18.27
2023-05-10T12:01:58.677Z,18.35
2023-05-10T12:05:37.202Z,18.32
2023-05-10T12:09:13.442Z,18.28
2023-05-10T12:12:53.630Z,18.23
2023-05-10T12:16:30.766Z,18.13
2023-05-10T12:20:28.692Z,18.02
2023-05-10T12:23:47.370Z,17.99
2023-05-10T12:31:01.028Z,17.91
2023-05-10T12:34:38.608Z,17.85
2023-05-10T12:38:39.394Z,17.89
2023-05-10T12:41:54.359Z,17.85
2023-05-10T12:45:32.307Z,17.89
2023-05-10T12:49:09.995Z,17.76
2023-05-10T12:52:47.417Z,17.71
2023-05-10T12:56:25.011Z,17.61
2023-05-10T13:00:02.959Z,17.56
2023-05-10T13:03:40.468Z,17.57
2023-05-10T13:07:18.193Z,17.64
2023-05-10T13:10:55.820Z,17.59
2023-05-10T13:14:33.738Z,17.62
2023-05-10T13:18:11.713Z,17.63
2023-05-10T13:21:48.952Z,17.55
2023-05-10T13:25:26.849Z,17.54
2023-05-10T13:29:04.665Z,17.55
2023-05-10T13:33:00.912Z,17.59
2023-05-10T13:36:19.457Z,17.63
2023-05-10T13:39:57.342Z,17.64
2023-05-10T13:43:35.125Z,17.55
2023-05-10T13:47:12.478Z,17.50
2023-05-10T13:50:50.928Z,17.51
2023-05-10T13:54:30.734Z,17.58
2023-05-10T13:58:06.002Z,17.56
2023-05-10T14:01:44.277Z,17.49
2023-05-10T14:05:25.338Z,17.51
2023-05-10T14:08:58.755Z,17.45
2023-05-10T14:12:36.403Z,17.44
2023-05-10T14:16:16.171Z,17.46
2023-05-10T14:19:51.814Z,17.45
2023-05-10T14:23:29.953Z,17.36
2023-05-10T14:27:07.217Z,17.31
2023-05-10T14:30:44.743Z,17.29
2023-05-10T14:34:22.517Z,17.25
2023-05-10T14:38:00.144Z,17.17
2023-05-10T14:41:38.391Z,17.21
2023-05-10T14:45:15.400Z,17.24
2023-05-10T14:48:53.061Z,17.28
2023-05-10T14:52:32.887Z,17.27
2023-05-10T14:56:08.771Z,17.21
2023-05-10T14:59:45.949Z,17.23
2023-05-10T15:03:24.275Z,17.27
2023-05-10T15:07:01.664Z,17.21
2023-05-10T15:10:58.119Z,17.16
2023-05-10T15:14:17.343Z,17.07
2023-05-10T15:17:54.415Z,17.13
2023-05-10T15:21:36.208Z,17.06
2023-05-10T15:25:10.812Z,16.99
2023-05-10T15:28:47.742Z,17.01
2023-05-10T15:32:25.198Z,17.00
2023-05-10T15:36:04.831Z,16.91
2023-05-10T15:39:40.331Z,16.79
2023-05-10T15:43:17.892Z,16.73
2023-05-10T15:47:15.308Z,16.72
2023-05-10T15:50:33.751Z,16.66
2023-05-10T15:54:11.066Z,16.56
2023-05-10T15:57:50.058Z,16.48
2023-05-10T16:01:26.863Z,16.44
2023-05-10T16:05:05.249Z,16.39
2023-05-10T16:08:42.238Z,16.33
2023-05-10T16:12:21.534Z,16.26
2023-05-10T16:15:58.462Z,16.20
2023-05-10T16:19:36.144Z,16.14
2023-05-10T16:23:15.249Z,16.12
2023-05-10T16:26:50.367Z,16.08
2023-05-10T16:30:30.600Z,16.08
2023-05-10T16:34:06.428Z,16.08
2023-05-10T16:37:43.663Z,16.01
2023-05-10T16:41:21.654Z,15.87
2023-05-10T16:45:07.262Z,15.84
2023-05-10T16:48:37.760Z,15.80
2023-05-10T16:52:15.060Z,15.76
2023-05-10T16:55:52.229Z,15.74
2023-05-10T16:59:31.182Z,15.74
2023-05-10T17:03:07.969Z,15.73
2023-05-10T17:06:45.661Z,15.67
2023-05-10T17:10:23.024Z,15.60
2023-05-10T17:14:01.742Z,15.50
2023-05-10T17:17:57.057Z,15.44
2023-05-10T17:21:16.766Z,15.38
2023-05-10T17:24:53.656Z,15.37
2023-05-10T17:28:31.166Z,15.36
2023-05-10T17:32:11.609Z,15.31
2023-05-10T17:35:47.238Z,15.29
2023-05-10T17:39:23.975Z,15.23
2023-05-10T17:43:02.495Z,15.18
2023-05-10T17:46:40.069Z,15.12
2023-05-10T17:50:16.775Z,15.06
2023-05-10T17:53:55.638Z,15.03
2023-05-10T17:57:33.480Z,15.00
2023-05-10T18:04:49.634Z,14.88
2023-05-10T18:08:27.526Z,14.80
2023-05-10T18:12:03.704Z,14.76
2023-05-10T18:15:41.520Z,14.73
2023-05-10T18:19:18.792Z,14.69
2023-05-10T18:22:57.960Z,14.64
2023-05-10T18:26:34.405Z,14.57
2023-05-10T18:30:12.654Z,14.50
2023-05-10T18:33:50.063Z,14.46
2023-05-10T18:37:28.196Z,14.41
2023-05-10T18:41:06.013Z,14.38
2023-05-10T18:44:42.954Z,14.36
2023-05-10T18:48:20.508Z,14.34
2023-05-10T18:51:58.997Z,14.30
2023-05-10T18:55:38.124Z,14.24
2023-05-10T18:59:14.630Z,14.20
2023-05-10T19:02:50.894Z,14.18
2023-05-10T19:06:28.784Z,14.13
2023-05-10T19:10:06.959Z,14.08
2023-05-10T19:13:45.518Z,14.02
2023-05-10T19:17:25.171Z,13.99
2023-05-10T19:21:03.176Z,13.94
2023-05-10T19:24:57.588Z,13.90
2023-05-10T19:28:14.727Z,13.85
2023-05-10T19:31:53.074Z,13.79
2023-05-10T19:35:31.046Z,13.75
2023-05-10T19:39:07.514Z,13.73
2023-05-10T19:42:45.212Z,13.66
2023-05-10T19:46:23.071Z,13.53
2023-05-10T19:50:00.951Z,13.43
2023-05-10T19:53:38.251Z,13.37
2023-05-10T19:57:15.849Z,13.31
2023-05-10T20:00:53.706Z,13.27
2023-05-10T20:04:31.305Z,13.23
2023-05-10T20:08:09.728Z,13.20
2023-05-10T20:11:46.603Z,13.16
2023-05-10T20:15:24.446Z,13.14
2023-05-10T20:19:01.834Z,13.12
2023-05-10T20:22:39.618Z,13.08
2023-05-10T20:26:17.414Z,13.03
2023-05-10T20:29:54.723Z,13.01
2023-05-10T20:33:32.467Z,12.99
2023-05-10T20:37:10.407Z,12.94
2023-05-10T20:40:49.234Z,12.90
2023-05-10T20:44:25.645Z,12.86
2023-05-10T20:48:03.454Z,12.81
2023-05-10T20:51:40.761Z,12.78
2023-05-10T20:55:19.510Z,12.74
2023-05-10T20:58:56.754Z,12.68
2023-05-10T21:02:53.047Z,12.65
2023-05-10T21:06:11.362Z,12.61
2023-05-10T21:09:50.268Z,12.57
2023-05-10T21:13:45.700Z,12.56
2023-05-10T21:17:04.629Z,12.52
2023-05-10T21:20:42.143Z,12.50
2023-05-10T21:24:19.820Z,12.47
2023-05-10T21:27:57.868Z,12.45
2023-05-10T21:31:35.422Z,12.43
2023-05-10T21:35:12.719Z,12.42
2023-05-10T21:38:50.981Z,12.42
2023-05-10T21:42:28.093Z,12.41
2023-05-10T21:46:06.239Z,12.37
2023-05-10T21:49:43.238Z,12.34
2023-05-10T21:53:22.375Z,12.28
2023-05-10T22:00:36.801Z,12.02
2023-05-10T22:04:14.336Z,11.86
2023-05-10T22:07:52.199Z,11.74
2023-05-10T22:11:30.089Z,11.64
2023-05-10T22:15:10.860Z,11.58
2023-05-10T22:18:45.096Z,11.56
2023-05-10T22:22:22.936Z,11.57
2023-05-10T22:26:02.704Z,11.57
2023-05-10T22:29:38.351Z,11.54
2023-05-10T22:33:15.469Z,11.50
2023-05-10T22:36:53.864Z,11.49
2023-05-10T22:40:31.163Z,11.48
2023-05-10T22:44:09.166Z,11.44
2023-05-10T22:47:47.390Z,11.47
2023-05-10T22:51:24.333Z,11.41
2023-05-10T22:55:01.766Z,11.27
2023-05-10T22:58:39.735Z,11.17
2023-05-10T23:02:17.134Z,11.11
2023-05-10T23:05:54.897Z,11.06
2023-05-10T23:09:32.469Z,11.00
2023-05-10T23:13:10.101Z,10.95
2023-05-10T23:17:06.669Z,10.90
2023-05-10T23:20:25.843Z,10.85
2023-05-10T23:24:03.070Z,10.81
2023-05-10T23:27:40.589Z,10.76
2023-05-10T23:31:18.388Z,10.74
2023-05-10T23:34:55.955Z,10.69
2023-05-10T23:38:33.753Z,10.68
2023-05-10T23:42:11.448Z,10.65
2023-05-10T23:46:01.745Z,10.61
2023-05-10T23:49:26.612Z,10.56
2023-05-10T23:53:04.286Z,10.53
2023-05-10T23:56:42.153Z,10.51
